createdAt,value
2022-12-26T00:00:33.234Z,10.60
2022-12-26T00:01:33.161Z,10.50
2022-12-26T00:02:33.278Z,10.60
2022-12-26T00:03:33.249Z,10.80
2022-12-26T00:04:48.526Z,10.80
2022-12-26T00:05:34.093Z,11.00
2022-12-26T00:06:33.082Z,10.60
2022-12-26T00:07:33.078Z,10.60
2022-12-26T00:08:33.081Z,10.60
2022-12-26T00:09:33.050Z,11.30
2022-12-26T00:10:33.043Z,10.70
2022-12-26T00:11:33.043Z,10.30
2022-12-26T00:12:33.018Z,10.80
2022-12-26T00:13:40.344Z,10.70
2022-12-26T00:14:33.994Z,10.90
2022-12-26T00:15:32.985Z,10.70
2022-12-26T00:16:33.107Z,10.70
2022-12-26T00:17:32.986Z,10.50
2022-12-26T00:18:32.972Z,10.50
2022-12-26T00:19:32.944Z,10.50
2022-12-26T00:20:32.936Z,10.50
2022-12-26T00:21:32.917Z,10.50
2022-12-26T00:22:32.912Z,10.70
2022-12-26T00:23:32.911Z,11.40
2022-12-26T00:24:32.884Z,10.90
2022-12-26T00:25:32.874Z,10.60
2022-12-26T00:26:32.864Z,11.40
2022-12-26T00:27:32.858Z,11.20
2022-12-26T00:28:32.854Z,11.10
2022-12-26T00:29:32.839Z,11.00
2022-12-26T00:30:32.821Z,10.60
2022-12-26T00:31:32.842Z,10.80
2022-12-26T00:32:32.795Z,10.80
2022-12-26T00:33:32.828Z,10.70
2022-12-26T00:34:32.774Z,10.70
2022-12-26T00:35:32.770Z,11.20
2022-12-26T00:36:32.751Z,11.60
2022-12-26T00:37:32.746Z,10.80
2022-12-26T00:38:32.760Z,10.90
2022-12-26T00:39:32.723Z,11.00
2022-12-26T00:40:32.709Z,10.80
2022-12-26T00:41:32.702Z,10.70
2022-12-26T00:42:32.731Z,10.80
2022-12-26T00:43:32.693Z,10.90
2022-12-26T00:44:32.670Z,10.90
2022-12-26T00:45:32.659Z,10.80
2022-12-26T00:46:32.705Z,10.80
2022-12-26T00:47:32.631Z,11.10
2022-12-26T00:48:32.661Z,11.20
2022-12-26T00:50:13.127Z,11.10
2022-12-26T00:50:35.052Z,10.90
2022-12-26T00:51:32.590Z,10.80
2022-12-26T00:52:32.582Z,11.10
2022-12-26T00:53:32.590Z,10.80
2022-12-26T00:54:32.559Z,11.00
2022-12-26T00:55:32.558Z,10.70
2022-12-26T00:56:32.568Z,10.70
2022-12-26T00:57:32.526Z,10.80
2022-12-26T00:58:32.530Z,10.70
2022-12-26T00:59:32.507Z,11.10
2022-12-26T01:00:32.594Z,11.10
2022-12-26T01:01:32.708Z,10.70
2022-12-26T01:02:32.632Z,10.70
2022-12-26T01:03:32.520Z,10.60
2022-12-26T01:04:32.447Z,10.90
2022-12-26T01:05:32.451Z,10.80
2022-12-26T01:06:32.422Z,10.80
2022-12-26T01:07:32.413Z,11.20
2022-12-26T01:08:32.413Z,11.10
2022-12-26T01:09:32.406Z,10.70
2022-12-26T01:10:32.409Z,10.90
2022-12-26T01:11:32.376Z,10.80
2022-12-26T01:12:32.354Z,10.70
2022-12-26T01:13:32.358Z,10.60
2022-12-26T01:14:32.335Z,10.90
2022-12-26T01:15:32.326Z,10.80
2022-12-26T01:16:32.396Z,10.70
2022-12-26T01:17:32.328Z,10.80
2022-12-26T01:18:32.325Z,10.90
2022-12-26T01:19:32.287Z,10.70
2022-12-26T01:20:32.273Z,11.20
2022-12-26T01:21:32.274Z,10.70
2022-12-26T01:22:32.262Z,10.40
2022-12-26T01:23:32.255Z,10.80
2022-12-26T01:24:32.226Z,10.90
2022-12-26T01:25:32.211Z,10.50
2022-12-26T01:26:32.207Z,10.70
2022-12-26T01:27:32.190Z,10.40
2022-12-26T01:28:32.194Z,10.60
2022-12-26T01:29:32.169Z,10.70
2022-12-26T01:30:32.162Z,10.60
2022-12-26T01:31:32.174Z,10.30
2022-12-26T01:32:32.158Z,10.50
2022-12-26T01:33:32.134Z,10.50
2022-12-26T01:34:32.112Z,10.70
2022-12-26T01:35:32.153Z,10.80
2022-12-26T01:36:32.093Z,10.50
2022-12-26T01:37:32.104Z,11.20
2022-12-26T01:38:32.083Z,10.80
2022-12-26T01:39:32.057Z,10.80
2022-12-26T01:40:32.058Z,10.90
2022-12-26T01:41:32.043Z,10.60
2022-12-26T01:42:32.025Z,10.50
2022-12-26T01:43:32.024Z,10.50
2022-12-26T01:44:32.010Z,10.70
2022-12-26T01:45:32.039Z,10.80
2022-12-26T01:46:31.991Z,10.80
2022-12-26T01:47:34.102Z,10.70
2022-12-26T01:48:32.031Z,10.60
2022-12-26T01:49:31.952Z,10.60
2022-12-26T01:50:31.938Z,11.00
2022-12-26T01:51:31.931Z,10.60
2022-12-26T01:52:31.918Z,11.00
2022-12-26T01:53:31.937Z,10.60
2022-12-26T01:54:41.369Z,10.60
2022-12-26T01:55:32.949Z,11.00
2022-12-26T01:56:31.870Z,10.80
2022-12-26T01:57:31.870Z,10.70
2022-12-26T01:58:31.862Z,10.60
2022-12-26T01:59:31.845Z,10.50
2022-12-26T02:00:31.831Z,10.40
2022-12-26T02:01:32.082Z,10.60
2022-12-26T02:02:31.898Z,10.60
2022-12-26T02:03:31.821Z,10.70
2022-12-26T02:04:31.797Z,10.60
2022-12-26T02:05:31.775Z,10.60
2022-12-26T02:06:31.766Z,10.80
2022-12-26T02:07:31.749Z,11.90
2022-12-26T02:08:31.742Z,10.80
2022-12-26T02:09:31.767Z,11.00
2022-12-26T02:10:31.721Z,11.10
2022-12-26T02:11:31.703Z,10.80
2022-12-26T02:12:34.977Z,10.80
2022-12-26T02:13:32.680Z,10.60
2022-12-26T02:14:31.685Z,10.90
2022-12-26T02:15:31.659Z,11.10
2022-12-26T02:16:31.705Z,10.80
2022-12-26T02:17:31.647Z,10.70
2022-12-26T02:18:31.633Z,10.60
2022-12-26T02:19:31.631Z,10.70
2022-12-26T02:20:31.615Z,10.70
2022-12-26T02:21:31.595Z,10.90
2022-12-26T02:22:31.585Z,10.70
2022-12-26T02:23:31.575Z,11.00
2022-12-26T02:24:31.580Z,10.90
2022-12-26T02:25:31.586Z,10.70
2022-12-26T02:26:31.543Z,10.70
2022-12-26T02:27:31.529Z,10.80
2022-12-26T02:28:31.533Z,11.10
2022-12-26T02:29:31.528Z,10.90
2022-12-26T02:30:31.496Z,10.60
2022-12-26T02:31:31.529Z,10.20
2022-12-26T02:32:31.490Z,10.70
2022-12-26T02:33:31.462Z,10.60
2022-12-26T02:34:31.466Z,10.50
2022-12-26T02:35:31.441Z,10.80
2022-12-26T02:36:31.428Z,10.70
2022-12-26T02:37:31.425Z,10.90
2022-12-26T02:38:31.406Z,11.00
2022-12-26T02:39:44.933Z,10.90
2022-12-26T02:40:32.390Z,10.90
2022-12-26T02:41:31.397Z,10.60
2022-12-26T02:42:31.368Z,10.70
2022-12-26T02:43:31.362Z,10.70
2022-12-26T02:44:31.361Z,10.80
2022-12-26T02:45:31.479Z,10.90
2022-12-26T02:46:31.409Z,10.80
2022-12-26T02:47:31.321Z,10.70
2022-12-26T02:48:31.296Z,10.80
2022-12-26T02:49:31.298Z,10.90
2022-12-26T02:50:31.285Z,10.80
2022-12-26T02:51:31.291Z,11.80
2022-12-26T02:52:31.255Z,10.70
2022-12-26T02:53:31.259Z,10.80
2022-12-26T02:54:31.252Z,10.90
2022-12-26T02:55:31.222Z,10.70
2022-12-26T02:56:31.209Z,10.80
2022-12-26T02:57:31.218Z,10.70
2022-12-26T02:58:31.193Z,10.50
2022-12-26T02:59:56.423Z,10.60
2022-12-26T03:00:32.168Z,10.60
2022-12-26T03:01:31.224Z,10.50
2022-12-26T03:02:31.330Z,10.60
2022-12-26T03:03:31.182Z,10.50
2022-12-26T03:04:31.148Z,10.40
2022-12-26T03:05:31.110Z,10.80
2022-12-26T03:06:31.132Z,10.70
2022-12-26T03:07:31.087Z,10.70
2022-12-26T03:08:31.080Z,11.10
2022-12-26T03:09:31.092Z,11.10
2022-12-26T03:10:31.057Z,10.40
2022-12-26T03:11:31.046Z,10.50
2022-12-26T03:12:31.055Z,10.50
2022-12-26T03:13:31.043Z,10.80
2022-12-26T03:14:31.028Z,11.00
2022-12-26T03:15:30.999Z,10.60
2022-12-26T03:16:31.064Z,10.70
2022-12-26T03:17:30.980Z,10.20
2022-12-26T03:18:58.151Z,10.40
2022-12-26T03:19:31.980Z,10.50
2022-12-26T03:20:30.945Z,11.10
2022-12-26T03:21:30.945Z,10.40
2022-12-26T03:22:30.938Z,10.70
2022-12-26T03:23:30.919Z,11.20
2022-12-26T03:24:30.916Z,10.40
2022-12-26T03:25:30.892Z,11.00
2022-12-26T03:26:30.884Z,10.80
2022-12-26T03:27:30.869Z,11.20
2022-12-26T03:28:30.858Z,10.70
2022-12-26T03:29:30.915Z,10.50
2022-12-26T03:30:30.939Z,10.40
2022-12-26T03:31:30.825Z,10.50
2022-12-26T03:32:30.812Z,10.50
2022-12-26T03:33:30.805Z,10.30
2022-12-26T03:34:30.826Z,10.30
2022-12-26T03:35:30.783Z,10.70
2022-12-26T03:36:30.768Z,10.60
2022-12-26T03:37:47.487Z,10.90
2022-12-26T03:38:31.766Z,12.30
2022-12-26T03:39:30.785Z,10.50
2022-12-26T03:40:30.725Z,10.80
2022-12-26T03:41:30.716Z,10.90
2022-12-26T03:42:30.705Z,10.70
2022-12-26T03:43:30.692Z,10.70
2022-12-26T03:44:30.703Z,10.60
2022-12-26T03:45:30.701Z,10.50
2022-12-26T03:46:30.692Z,10.50
2022-12-26T03:47:30.656Z,10.60
2022-12-26T03:48:30.641Z,10.80
2022-12-26T03:49:30.651Z,10.60
2022-12-26T03:50:30.626Z,10.90
2022-12-26T03:51:30.605Z,10.80
2022-12-26T03:52:30.598Z,10.50
2022-12-26T03:53:30.582Z,10.80
2022-12-26T03:54:37.625Z,10.70
2022-12-26T03:55:30.560Z,10.40
2022-12-26T03:56:32.756Z,10.70
2022-12-26T03:57:30.538Z,10.60
2022-12-26T03:58:30.531Z,10.60
2022-12-26T03:59:30.677Z,10.70
2022-12-26T04:00:30.507Z,10.70
2022-12-26T04:01:30.609Z,10.50
2022-12-26T04:02:30.663Z,10.60
2022-12-26T04:03:30.579Z,10.40
2022-12-26T04:04:30.528Z,10.70
2022-12-26T04:05:30.450Z,10.80
2022-12-26T04:06:30.444Z,10.80
2022-12-26T04:07:30.429Z,10.60
2022-12-26T04:08:30.427Z,11.20
2022-12-26T04:09:30.420Z,10.60
2022-12-26T04:10:30.398Z,10.50
2022-12-26T04:11:30.385Z,10.50
2022-12-26T04:12:30.378Z,10.30
2022-12-26T04:13:30.363Z,10.40
2022-12-26T04:14:30.364Z,10.80
2022-12-26T04:15:30.386Z,10.40
2022-12-26T04:16:30.340Z,10.50
2022-12-26T04:17:30.341Z,10.50
2022-12-26T04:18:30.312Z,10.90
2022-12-26T04:19:30.311Z,11.00
2022-12-26T04:20:30.297Z,11.10
2022-12-26T04:21:30.281Z,10.20
2022-12-26T04:22:30.271Z,10.30
2022-12-26T04:23:30.248Z,10.90
2022-12-26T04:24:30.258Z,10.50
2022-12-26T04:25:49.761Z,10.40
2022-12-26T04:26:31.219Z,10.70
2022-12-26T04:27:30.210Z,10.70
2022-12-26T04:28:30.198Z,10.50
2022-12-26T04:29:30.200Z,10.40
2022-12-26T04:30:30.218Z,10.50
2022-12-26T04:31:30.306Z,10.30
2022-12-26T04:32:30.185Z,10.40
2022-12-26T04:33:30.160Z,10.70
2022-12-26T04:34:30.154Z,10.70
2022-12-26T04:35:30.146Z,10.60
2022-12-26T04:36:30.110Z,10.60
2022-12-26T04:37:30.141Z,11.20
2022-12-26T04:38:30.165Z,11.30
2022-12-26T04:39:30.130Z,10.30
2022-12-26T04:40:30.123Z,10.50
2022-12-26T04:41:30.055Z,10.50
2022-12-26T04:42:30.043Z,10.60
2022-12-26T04:43:48.331Z,10.60
2022-12-26T04:44:31.048Z,10.60
2022-12-26T04:45:30.040Z,10.70
2022-12-26T04:46:30.074Z,10.30
2022-12-26T04:47:29.988Z,10.30
2022-12-26T04:48:29.993Z,10.40
2022-12-26T04:49:29.999Z,10.70
2022-12-26T04:50:29.951Z,10.90
2022-12-26T04:51:29.949Z,10.30
2022-12-26T04:52:29.931Z,10.30
2022-12-26T04:53:29.922Z,11.50
2022-12-26T04:54:29.969Z,10.10
2022-12-26T04:55:29.907Z,10.20
2022-12-26T04:56:29.889Z,10.60
2022-12-26T04:57:29.883Z,10.70
2022-12-26T04:58:29.871Z,10.50
2022-12-26T04:59:29.877Z,10.40
2022-12-26T05:00:29.853Z,10.20
2022-12-26T05:01:29.936Z,10.20
2022-12-26T05:02:29.955Z,10.40
2022-12-26T05:03:29.904Z,10.40
2022-12-26T05:04:29.811Z,10.60
2022-12-26T05:05:29.818Z,10.30
2022-12-26T05:06:29.780Z,10.30
2022-12-26T05:07:29.773Z,10.90
2022-12-26T05:08:29.761Z,10.40
2022-12-26T05:09:29.762Z,10.10
2022-12-26T05:10:29.753Z,10.30
2022-12-26T05:11:29.744Z,10.10
2022-12-26T05:12:29.734Z,10.20
2022-12-26T05:13:29.705Z,10.20
2022-12-26T05:14:29.699Z,10.40
2022-12-26T05:15:29.693Z,10.50
2022-12-26T05:16:29.737Z,10.10
2022-12-26T05:17:29.660Z,10.20
2022-12-26T05:18:29.645Z,10.40
2022-12-26T05:19:29.640Z,10.40
2022-12-26T05:20:29.637Z,10.30
2022-12-26T05:21:29.634Z,10.10
2022-12-26T05:22:29.620Z,11.20
2022-12-26T05:23:29.596Z,10.70
2022-12-26T05:24:29.578Z,9.90
2022-12-26T05:25:29.587Z,10.10
2022-12-26T05:26:29.556Z,10.60
2022-12-26T05:27:29.551Z,10.20
2022-12-26T05:28:29.533Z,9.90
2022-12-26T05:29:29.546Z,9.90
2022-12-26T05:30:29.583Z,10.00
2022-12-26T05:31:35.002Z,9.90
2022-12-26T05:32:30.490Z,9.90
2022-12-26T05:33:29.482Z,9.80
2022-12-26T05:34:29.475Z,10.40
2022-12-26T05:35:29.482Z,9.90
2022-12-26T05:36:29.446Z,9.90
2022-12-26T05:37:29.454Z,10.50
2022-12-26T05:38:29.431Z,10.50
2022-12-26T05:39:29.417Z,11.50
2022-12-26T05:40:29.416Z,10.30
2022-12-26T05:41:29.396Z,10.60
2022-12-26T05:42:29.377Z,10.10
2022-12-26T05:43:29.369Z,9.90
2022-12-26T05:44:29.358Z,10.30
2022-12-26T05:45:29.365Z,11.00
2022-12-26T05:46:29.382Z,10.10
2022-12-26T05:47:29.323Z,9.90
2022-12-26T05:48:29.310Z,10.10
2022-12-26T05:49:29.314Z,10.10
2022-12-26T05:50:29.319Z,10.40
2022-12-26T05:51:29.287Z,10.40
2022-12-26T05:52:29.267Z,9.90
2022-12-26T05:53:29.283Z,10.00
2022-12-26T05:54:29.243Z,10.80
2022-12-26T05:55:29.258Z,11.00
2022-12-26T05:56:29.256Z,9.90
2022-12-26T05:57:29.213Z,10.00
2022-12-26T05:58:29.210Z,10.30
2022-12-26T05:59:29.205Z,10.40
2022-12-26T06:00:29.202Z,10.10
2022-12-26T06:01:29.328Z,9.90
2022-12-26T06:02:29.248Z,9.90
2022-12-26T06:03:29.254Z,10.20
2022-12-26T06:04:29.142Z,11.20
2022-12-26T06:05:29.142Z,10.40
2022-12-26T06:06:29.181Z,10.00
2022-12-26T06:07:29.113Z,10.40
2022-12-26T06:08:29.092Z,10.00
2022-12-26T06:09:29.110Z,10.00
2022-12-26T06:10:29.082Z,10.40
2022-12-26T06:11:29.073Z,10.00
2022-12-26T06:12:29.050Z,10.40
2022-12-26T06:13:29.047Z,10.40
2022-12-26T06:14:29.029Z,10.20
2022-12-26T06:15:29.031Z,10.20
2022-12-26T06:16:29.117Z,10.20
2022-12-26T06:17:29.014Z,10.40
2022-12-26T06:18:28.995Z,9.90
2022-12-26T06:19:28.978Z,9.90
2022-12-26T06:20:28.975Z,10.20
2022-12-26T06:21:28.954Z,10.30
2022-12-26T06:22:28.939Z,10.40
2022-12-26T06:23:28.931Z,10.10
2022-12-26T06:24:28.923Z,10.40
2022-12-26T06:25:28.959Z,11.60
2022-12-26T06:26:28.897Z,9.90
2022-12-26T06:27:28.892Z,10.10
2022-12-26T06:28:28.879Z,10.00
2022-12-26T06:29:28.870Z,10.20
2022-12-26T06:30:28.867Z,10.20
2022-12-26T06:31:28.891Z,10.10
2022-12-26T06:32:28.837Z,9.70
2022-12-26T06:33:28.822Z,10.10
2022-12-26T06:34:28.815Z,10.80
2022-12-26T06:35:28.815Z,10.10
2022-12-26T06:36:28.797Z,10.10
2022-12-26T06:37:28.786Z,10.40
2022-12-26T06:38:28.771Z,10.20
2022-12-26T06:39:28.757Z,10.20
2022-12-26T06:40:28.777Z,9.90
2022-12-26T06:41:28.759Z,10.10
2022-12-26T06:42:28.733Z,10.10
2022-12-26T06:43:28.712Z,10.20
2022-12-26T06:44:28.720Z,11.10
2022-12-26T06:45:28.712Z,10.40
2022-12-26T06:46:28.750Z,10.00
2022-12-26T06:47:28.667Z,10.50
2022-12-26T06:48:28.665Z,10.20
2022-12-26T06:49:32.759Z,10.50
2022-12-26T06:50:28.649Z,10.00
2022-12-26T06:51:28.623Z,9.90
2022-12-26T06:52:28.611Z,9.70
2022-12-26T06:53:28.610Z,10.40
2022-12-26T06:54:28.599Z,10.50
2022-12-26T06:55:28.603Z,9.70
2022-12-26T06:56:28.567Z,9.90
2022-12-26T06:57:28.574Z,10.10
2022-12-26T06:58:28.545Z,9.80
2022-12-26T06:59:28.533Z,10.40
2022-12-26T07:00:28.568Z,10.20
2022-12-26T07:01:28.663Z,10.10
2022-12-26T07:02:28.625Z,9.90
2022-12-26T07:03:28.512Z,9.90
2022-12-26T07:04:28.497Z,10.10
2022-12-26T07:05:28.487Z,10.40
2022-12-26T07:06:28.457Z,10.10
2022-12-26T07:07:28.448Z,10.30
2022-12-26T07:08:28.435Z,10.30
2022-12-26T07:09:33.360Z,10.10
2022-12-26T07:10:29.478Z,10.30
2022-12-26T07:11:28.410Z,10.20
2022-12-26T07:12:28.394Z,10.10
2022-12-26T07:13:28.406Z,10.10
2022-12-26T07:14:28.376Z,10.30
2022-12-26T07:15:28.375Z,10.80
2022-12-26T07:16:28.483Z,9.70
2022-12-26T07:17:28.339Z,10.00
2022-12-26T07:18:28.327Z,10.70
2022-12-26T07:19:28.318Z,10.00
2022-12-26T07:20:28.337Z,10.10
2022-12-26T07:21:28.300Z,10.40
2022-12-26T07:22:28.287Z,10.30
2022-12-26T07:23:28.274Z,10.30
2022-12-26T07:24:28.298Z,9.80
2022-12-26T07:25:28.262Z,9.90
2022-12-26T07:26:28.240Z,10.60
2022-12-26T07:27:28.230Z,10.00
2022-12-26T07:28:28.218Z,9.80
2022-12-26T07:29:28.225Z,10.10
2022-12-26T07:30:28.209Z,10.30
2022-12-26T07:31:28.536Z,10.00
2022-12-26T07:32:28.304Z,9.90
2022-12-26T07:33:28.177Z,10.20
2022-12-26T07:34:31.688Z,10.10
2022-12-26T07:35:28.165Z,10.40
2022-12-26T07:36:28.177Z,10.00
2022-12-26T07:37:28.121Z,9.90
2022-12-26T07:38:28.115Z,9.60
2022-12-26T07:39:28.104Z,9.90
2022-12-26T07:40:28.105Z,10.20
2022-12-26T07:41:28.077Z,9.90
2022-12-26T07:42:28.067Z,10.00
2022-12-26T07:43:28.054Z,10.00
2022-12-26T07:44:28.053Z,10.50
2022-12-26T07:45:28.096Z,10.60
2022-12-26T07:46:28.152Z,9.80
2022-12-26T07:47:28.012Z,10.80
2022-12-26T07:48:27.996Z,10.20
2022-12-26T07:49:27.990Z,10.50
2022-12-26T07:50:28.123Z,10.30
2022-12-26T07:51:27.973Z,10.30
2022-12-26T07:52:27.956Z,10.50
2022-12-26T07:53:27.954Z,10.40
2022-12-26T07:54:27.938Z,10.80
2022-12-26T07:55:27.939Z,11.00
2022-12-26T07:56:27.914Z,10.40
2022-12-26T07:57:48.175Z,10.20
2022-12-26T07:58:28.895Z,10.10
2022-12-26T07:59:27.890Z,10.50
2022-12-26T08:00:27.931Z,10.40
2022-12-26T08:01:28.096Z,10.40
2022-12-26T08:02:28.102Z,10.10
2022-12-26T08:03:27.879Z,10.40
2022-12-26T08:04:27.835Z,10.50
2022-12-26T08:05:27.827Z,10.50
2022-12-26T08:06:27.822Z,10.70
2022-12-26T08:07:27.797Z,10.30
2022-12-26T08:08:27.786Z,10.60
2022-12-26T08:09:27.774Z,10.20
2022-12-26T08:10:27.932Z,10.40
2022-12-26T08:11:27.750Z,10.40
2022-12-26T08:12:27.752Z,10.50
2022-12-26T08:13:27.731Z,10.30
2022-12-26T08:14:27.720Z,10.30
2022-12-26T08:15:27.724Z,10.90
2022-12-26T08:16:27.732Z,10.30
2022-12-26T08:17:27.748Z,10.40
2022-12-26T08:18:27.687Z,10.00
2022-12-26T08:19:27.661Z,10.20
2022-12-26T08:20:27.661Z,10.00
2022-12-26T08:21:27.640Z,10.20
2022-12-26T08:22:27.628Z,10.20
2022-12-26T08:23:27.629Z,9.90
2022-12-26T08:24:27.609Z,10.10
2022-12-26T08:25:27.612Z,11.30
2022-12-26T08:26:27.585Z,10.30
2022-12-26T08:27:27.572Z,10.60
2022-12-26T08:28:27.581Z,10.70
2022-12-26T08:29:27.552Z,11.00
2022-12-26T08:30:27.542Z,10.40
2022-12-26T08:31:27.557Z,10.40
2022-12-26T08:32:27.564Z,10.70
2022-12-26T08:33:27.525Z,11.00
2022-12-26T08:34:27.497Z,10.60
2022-12-26T08:35:27.492Z,10.20
2022-12-26T08:36:27.487Z,10.90
2022-12-26T08:37:27.470Z,10.70
2022-12-26T08:38:31.603Z,10.40
2022-12-26T08:39:27.446Z,10.40
2022-12-26T08:40:42.558Z,10.70
2022-12-26T08:41:28.434Z,10.90
2022-12-26T08:42:27.411Z,10.60
2022-12-26T08:43:48.933Z,10.40
2022-12-26T08:44:29.077Z,10.90
2022-12-26T08:45:27.379Z,11.70
2022-12-26T08:46:27.394Z,10.90
2022-12-26T08:47:27.356Z,10.40
2022-12-26T08:48:27.348Z,10.90
2022-12-26T08:49:27.355Z,11.30
2022-12-26T08:50:27.321Z,10.70
2022-12-26T08:51:27.400Z,10.70
2022-12-26T08:52:27.300Z,10.60
2022-12-26T08:53:27.287Z,10.60
2022-12-26T08:54:27.280Z,10.90
2022-12-26T08:55:27.265Z,11.10
2022-12-26T08:56:27.285Z,10.40
2022-12-26T08:57:27.243Z,11.40
2022-12-26T08:58:27.275Z,10.70
2022-12-26T08:59:27.224Z,10.70
2022-12-26T09:00:27.219Z,10.70
2022-12-26T09:01:27.385Z,10.90
2022-12-26T09:02:27.464Z,10.70
2022-12-26T09:03:27.244Z,11.20
2022-12-26T09:04:27.175Z,10.60
2022-12-26T09:05:27.182Z,11.10
2022-12-26T09:06:27.168Z,10.80
2022-12-26T09:07:27.139Z,11.30
2022-12-26T09:08:27.124Z,10.90
2022-12-26T09:09:27.114Z,10.70
2022-12-26T09:10:27.106Z,10.80
2022-12-26T09:11:27.146Z,10.70
2022-12-26T09:12:27.085Z,10.20
2022-12-26T09:13:27.069Z,10.30
2022-12-26T09:14:27.061Z,10.30
2022-12-26T09:15:27.048Z,11.10
2022-12-26T09:16:27.160Z,11.10
2022-12-26T09:17:27.056Z,11.00
2022-12-26T09:18:27.038Z,11.10
2022-12-26T09:19:27.022Z,11.10
2022-12-26T09:20:27.001Z,10.60
2022-12-26T09:21:27.013Z,10.40
2022-12-26T09:22:30.609Z,11.20
2022-12-26T09:23:27.967Z,10.60
2022-12-26T09:24:26.950Z,10.30
2022-12-26T09:25:26.942Z,10.50
2022-12-26T09:26:26.943Z,11.20
2022-12-26T09:27:26.987Z,10.60
2022-12-26T09:28:26.907Z,10.40
2022-12-26T09:29:26.902Z,10.80
2022-12-26T09:30:26.892Z,10.30
2022-12-26T09:31:27.083Z,10.00
2022-12-26T09:32:26.869Z,10.30
2022-12-26T09:33:26.885Z,9.90
2022-12-26T09:34:26.857Z,10.30
2022-12-26T09:35:26.831Z,11.80
2022-12-26T09:36:26.853Z,10.20
2022-12-26T09:37:26.826Z,10.60
2022-12-26T09:38:26.805Z,10.60
2022-12-26T09:39:26.806Z,10.70
2022-12-26T09:40:26.795Z,10.90
2022-12-26T09:41:26.839Z,10.50
2022-12-26T09:42:26.835Z,10.30
2022-12-26T09:43:26.790Z,10.30
2022-12-26T09:44:26.764Z,11.00
2022-12-26T09:45:26.717Z,11.40
2022-12-26T09:46:26.745Z,11.70
2022-12-26T09:47:26.698Z,10.90
2022-12-26T09:48:26.688Z,11.30
2022-12-26T09:49:26.678Z,10.80
2022-12-26T09:50:26.675Z,11.00
2022-12-26T09:51:26.668Z,10.90
2022-12-26T09:52:26.663Z,10.70
2022-12-26T09:53:26.653Z,10.90
2022-12-26T09:54:26.629Z,10.90
2022-12-26T09:55:26.618Z,11.00
2022-12-26T09:57:27.585Z,10.30
2022-12-26T09:58:26.578Z,10.50
2022-12-26T09:59:26.565Z,10.70
2022-12-26T10:00:26.560Z,10.90
2022-12-26T10:01:26.698Z,10.70
2022-12-26T10:02:26.712Z,10.40
2022-12-26T10:03:26.529Z,10.20
2022-12-26T10:04:29.554Z,11.00
2022-12-26T10:05:26.499Z,11.50
2022-12-26T10:06:26.511Z,10.40
2022-12-26T10:07:26.486Z,10.40
2022-12-26T10:08:26.471Z,10.80
2022-12-26T10:09:26.477Z,10.70
2022-12-26T10:10:26.453Z,11.30
2022-12-26T10:11:26.449Z,10.40
2022-12-26T10:12:26.431Z,10.90
2022-12-26T10:13:26.417Z,11.60
2022-12-26T10:14:26.407Z,10.90
2022-12-26T10:15:26.394Z,10.90
2022-12-26T10:16:26.463Z,11.10
2022-12-26T10:17:26.373Z,11.10
2022-12-26T10:18:26.363Z,10.80
2022-12-26T10:19:32.280Z,10.80
2022-12-26T10:20:27.339Z,11.10
2022-12-26T10:21:26.371Z,10.70
2022-12-26T10:22:26.321Z,10.90
2022-12-26T10:23:26.308Z,11.00
2022-12-26T10:24:26.303Z,11.60
2022-12-26T10:25:30.386Z,11.50
2022-12-26T10:26:27.286Z,11.00
2022-12-26T10:27:26.269Z,10.90
2022-12-26T10:28:26.250Z,10.60
2022-12-26T10:29:26.243Z,10.90
2022-12-26T10:30:26.228Z,10.80
2022-12-26T10:31:26.251Z,11.20
2022-12-26T10:32:28.191Z,10.90
2022-12-26T10:33:26.196Z,10.80
2022-12-26T10:34:26.219Z,12.20
2022-12-26T10:35:26.174Z,11.20
2022-12-26T10:36:26.189Z,10.90
2022-12-26T10:37:26.151Z,11.40
2022-12-26T10:38:27.905Z,11.00
2022-12-26T10:39:26.131Z,11.00
2022-12-26T10:40:26.122Z,10.90
2022-12-26T10:41:26.144Z,11.00
2022-12-26T10:42:26.122Z,11.10
2022-12-26T10:43:26.084Z,10.70
2022-12-26T10:44:28.013Z,11.50
2022-12-26T10:45:26.068Z,11.40
2022-12-26T10:46:26.150Z,10.60
2022-12-26T10:47:26.043Z,11.30
2022-12-26T10:48:26.040Z,11.10
2022-12-26T10:49:26.035Z,10.60
2022-12-26T10:50:27.911Z,10.70
2022-12-26T10:51:26.018Z,10.90
2022-12-26T10:52:26.002Z,11.20
2022-12-26T10:53:25.977Z,10.70
2022-12-26T10:54:26.011Z,10.70
2022-12-26T10:55:29.373Z,11.90
2022-12-26T10:56:26.996Z,11.00
2022-12-26T10:57:25.957Z,10.90
2022-12-26T10:58:25.936Z,11.30
2022-12-26T10:59:25.937Z,11.00
2022-12-26T11:00:25.913Z,11.20
2022-12-26T11:01:25.948Z,11.40
2022-12-26T11:02:26.069Z,11.40
2022-12-26T11:03:25.938Z,10.90
2022-12-26T11:04:52.940Z,11.30
2022-12-26T11:05:56.995Z,11.80
2022-12-26T11:06:26.855Z,10.80
2022-12-26T11:07:25.826Z,11.40
2022-12-26T11:08:25.837Z,11.70
2022-12-26T11:09:25.804Z,11.70
2022-12-26T11:10:25.793Z,11.30
2022-12-26T11:11:25.800Z,11.60
2022-12-26T11:12:25.774Z,12.00
2022-12-26T11:13:25.814Z,11.80
2022-12-26T11:14:30.137Z,11.20
2022-12-26T11:15:26.752Z,12.30
2022-12-26T11:16:25.779Z,11.60
2022-12-26T11:17:25.721Z,11.70
2022-12-26T11:18:25.712Z,11.80
2022-12-26T11:19:25.729Z,12.00
2022-12-26T11:20:25.687Z,12.80
2022-12-26T11:21:25.689Z,11.30
2022-12-26T11:22:25.665Z,11.70
2022-12-26T11:23:33.405Z,11.10
2022-12-26T11:24:25.638Z,11.50
2022-12-26T11:25:25.625Z,12.00
2022-12-26T11:26:25.626Z,11.80
2022-12-26T11:27:25.611Z,12.20
2022-12-26T11:28:25.595Z,11.70
2022-12-26T11:29:25.597Z,11.70
2022-12-26T11:30:25.575Z,12.50
2022-12-26T11:31:25.563Z,12.20
2022-12-26T11:32:25.574Z,12.10
2022-12-26T11:33:25.540Z,12.10
2022-12-26T11:34:25.528Z,11.30
2022-12-26T11:35:25.552Z,11.60
2022-12-26T11:36:25.528Z,12.30
2022-12-26T11:37:33.566Z,11.60
2022-12-26T11:38:25.483Z,11.50
2022-12-26T11:39:25.473Z,11.40
2022-12-26T11:40:25.474Z,12.60
2022-12-26T11:41:25.450Z,11.60
2022-12-26T11:42:25.469Z,11.80
2022-12-26T11:43:25.429Z,12.30
2022-12-26T11:44:25.437Z,11.70
2022-12-26T11:45:25.429Z,12.10
2022-12-26T11:46:25.425Z,11.60
2022-12-26T11:47:25.394Z,12.30
2022-12-26T11:48:25.373Z,11.40
2022-12-26T11:49:25.363Z,11.20
2022-12-26T11:50:25.352Z,12.40
2022-12-26T11:51:25.339Z,12.10
2022-12-26T11:52:25.352Z,12.20
2022-12-26T11:53:25.318Z,11.80
2022-12-26T11:54:32.932Z,12.50
2022-12-26T11:55:25.297Z,11.80
2022-12-26T11:56:25.297Z,12.50
2022-12-26T11:57:25.291Z,12.00
2022-12-26T11:58:25.276Z,12.10
2022-12-26T11:59:25.263Z,11.70
2022-12-26T12:00:25.242Z,12.30
2022-12-26T12:01:25.323Z,12.60
2022-12-26T12:02:25.330Z,11.80
2022-12-26T12:03:25.234Z,12.60
2022-12-26T12:04:25.200Z,12.10
2022-12-26T12:05:25.193Z,12.60
2022-12-26T12:06:25.180Z,12.90
2022-12-26T12:07:25.175Z,11.30
2022-12-26T12:08:25.155Z,11.70
2022-12-26T12:09:32.961Z,12.30
2022-12-26T12:10:25.156Z,12.30
2022-12-26T12:11:25.123Z,12.40
2022-12-26T12:12:25.123Z,12.00
2022-12-26T12:13:25.099Z,12.10
2022-12-26T12:14:25.093Z,12.10
2022-12-26T12:15:25.078Z,12.60
2022-12-26T12:16:25.092Z,13.80
2022-12-26T12:17:25.096Z,13.10
2022-12-26T12:18:25.041Z,12.30
2022-12-26T12:19:25.052Z,11.90
2022-12-26T12:20:25.061Z,12.60
2022-12-26T12:21:25.010Z,12.30
2022-12-26T12:22:25.014Z,12.00
2022-12-26T12:23:24.990Z,12.00
2022-12-26T12:24:25.006Z,12.30
2022-12-26T12:25:24.974Z,11.90
2022-12-26T12:26:24.977Z,12.60
2022-12-26T12:27:24.955Z,12.70
2022-12-26T12:28:24.935Z,12.10
2022-12-26T12:29:24.926Z,12.10
2022-12-26T12:30:24.926Z,12.20
2022-12-26T12:31:24.922Z,12.10
2022-12-26T12:32:24.938Z,12.90
2022-12-26T12:33:24.926Z,12.20
2022-12-26T12:34:24.871Z,12.20
2022-12-26T12:35:24.885Z,13.60
2022-12-26T12:36:24.847Z,12.30
2022-12-26T12:37:24.849Z,12.20
2022-12-26T12:38:24.832Z,12.40
2022-12-26T12:39:24.813Z,12.30
2022-12-26T12:40:24.813Z,12.40
2022-12-26T12:41:24.791Z,12.10
2022-12-26T12:42:24.793Z,12.20
2022-12-26T12:43:24.772Z,11.90
2022-12-26T12:44:24.766Z,11.90
2022-12-26T12:45:24.798Z,13.20
2022-12-26T12:46:24.743Z,12.10
2022-12-26T12:47:24.739Z,11.60
2022-12-26T12:48:24.729Z,12.40
2022-12-26T12:49:24.720Z,12.00
2022-12-26T12:50:24.697Z,12.70
2022-12-26T12:51:24.684Z,12.70
2022-12-26T12:52:24.686Z,12.00
2022-12-26T12:53:24.664Z,12.30
2022-12-26T12:54:24.661Z,12.80